Time;durP1;ratioP1;P1;durP2;ratioP2;P2;SDS_P1;SDS_P2;PMS_P1;PMS_P2;Temp;Humidity;BMP_temperature;BMP_pressure;BME280_temperature;BME280_humidity;BME280_pressure;Samples;Min_cycle;Max_cycle;Signal;HPM_P1;HPM_P2
2022/01/14 00:02:15;;;;;;;11.48;5.00;;;;;;;-2.38;67.86;101982.48;1836157;77;21143;-63
2022/01/14 00:04:44;;;;;;;9.00;4.03;;;;;;;-2.34;68.00;101981.36;1828040;78;21549;-63
2022/01/14 00:07:13;;;;;;;14.15;4.80;;;;;;;-2.24;67.97;101980.38;1828123;78;21087;-64
2022/01/14 00:09:42;;;;;;;9.78;4.15;;;;;;;-2.24;67.97;101980.38;1857345;77;21198;-63
2022/01/14 00:12:16;;;;;;;8.30;4.08;;;;;;;-2.22;67.85;101972.28;1858379;77;21378;-63
2022/01/14 00:14:57;;;;;;;12.28;4.55;;;;;;;-2.19;67.86;101971.09;1826453;77;21678;-63
2022/01/14 00:17:16;;;;;;;11.43;4.92;;;;;;;-2.16;67.87;101963.44;1858868;77;21096;-63
2022/01/14 00:19:45;;;;;;;9.90;5.33;;;;;;;-2.14;68.12;101964.36;1860418;77;21086;-65
2022/01/14 00:22:16;;;;;;;9.83;5.10;;;;;;;-2.10;68.11;101953.72;1860444;77;21536;-64
2022/01/14 00:33:08;;;;;;;10.13;3.37;;;;;;;-2.06;67.99;101922.05;1812794;78;21070;-64
2022/01/14 00:35:41;;;;;;;5.75;3.27;;;;;;;-2.06;68.02;101919.47;1858360;77;21133;-65
2022/01/14 00:38:10;;;;;;;17.27;7.15;;;;;;;-2.07;67.98;101915.98;1818068;79;21129;-64
2022/01/14 00:40:39;;;;;;;8.60;4.37;;;;;;;-2.06;67.94;101907.86;1802177;78;21579;-66
2022/01/14 00:43:09;;;;;;;10.68;4.65;;;;;;;-2.18;68.16;101888.55;1796899;80;21575;-64
2022/01/14 00:45:39;;;;;;;12.93;5.50;;;;;;;-2.25;68.40;101890.89;1796877;80;21497;-64
2022/01/14 00:48:08;;;;;;;13.03;5.30;;;;;;;-2.27;68.41;101893.41;1796879;80;21161;-64
2022/01/14 00:50:40;;;;;;;14.95;6.42;;;;;;;-2.33;68.45;101889.89;1798690;78;21212;-61
2022/01/14 00:53:07;;;;;;;9.25;4.95;;;;;;;-2.30;68.19;101889.89;1796858;80;21094;-63
2022/01/14 00:56:05;;;;;;;11.48;4.30;;;;;;;-2.27;67.82;101857.30;1796936;80;21107;-62
2022/01/14 01:00:56;;;;;;;9.55;4.58;;;;;;;-2.18;68.46;101831.88;1798776;78;21042;-62
2022/01/14 01:03:27;;;;;;;5.97;2.00;;;;;;;-2.15;68.46;101831.88;1796810;80;21038;-62
2022/01/14 01:05:55;;;;;;;12.23;5.10;;;;;;;-2.16;68.41;101825.38;1796826;80;21073;-63
2022/01/14 01:08:26;;;;;;;6.95;3.50;;;;;;;-2.11;68.73;101827.69;1796862;80;21081;-62
2022/01/14 01:10:54;;;;;;;5.30;3.15;;;;;;;-2.11;68.73;101827.69;1798783;78;21124;-62
2022/01/14 01:13:31;;;;;;;7.90;3.67;;;;;;;-2.09;68.38;101828.61;1796996;80;21516;-64
2022/01/14 01:15:56;;;;;;;7.37;3.22;;;;;;;-2.07;68.35;101830.82;1797055;80;21102;-64
2022/01/14 01:18:25;;;;;;;10.03;4.08;;;;;;;-1.98;68.12;101830.23;1796770;80;21138;-63
2022/01/14 01:20:54;;;;;;;8.98;3.90;;;;;;;-1.98;68.12;101830.23;1797642;78;21081;-62
2022/01/14 01:23:23;;;;;;;9.40;4.00;;;;;;;-1.97;68.16;101821.24;1798209;80;21563;-61
2022/01/14 01:26:00;;;;;;;10.80;4.03;;;;;;;-2.06;67.90;101800.33;1798210;80;21138;-61
2022/01/14 01:28:24;;;;;;;8.00;3.55;;;;;;;-2.06;67.90;101800.33;1834700;78;21081;-61
2022/01/14 01:33:26;;;;;;;6.53;2.97;;;;;;;-1.96;67.95;101804.91;1854723;77;21092;-61
2022/01/14 01:35:56;;;;;;;5.55;2.15;;;;;;;-1.91;67.87;101805.48;1860688;77;21075;-64
2022/01/14 01:38:26;;;;;;;9.70;3.15;;;;;;;-1.94;67.89;101792.05;1860619;77;21052;-63
2022/01/14 01:40:54;;;;;;;9.75;3.72;;;;;;;-1.98;67.61;101775.59;1860502;77;21494;-62
2022/01/14 01:43:26;;;;;;;4.70;2.15;;;;;;;-1.98;67.61;101775.59;1842953;77;21113;-64
2022/01/14 01:45:55;;;;;;;6.90;2.55;;;;;;;-1.90;67.79;101774.95;1828326;78;21050;-63
2022/01/14 01:48:24;;;;;;;4.97;2.40;;;;;;;-1.91;67.84;101759.84;1828130;78;21521;-63
2022/01/14 01:50:53;;;;;;;6.65;2.05;;;;;;;-1.92;67.85;101759.84;1851668;77;21100;-62
2022/01/14 01:53:22;;;;;;;6.83;2.50;;;;;;;-1.92;67.86;101754.67;1858507;77;21118;-63
2022/01/14 01:55:51;;;;;;;9.55;2.95;;;;;;;-1.92;67.94;101757.25;1826130;78;21078;-61
2022/01/14 01:58:19;;;;;;;5.70;2.40;;;;;;;-1.95;67.97;101748.59;1858488;77;21124;-61
2022/01/14 02:00:48;;;;;;;2.47;1.42;;;;;;;-1.99;68.08;101745.47;1856533;77;21023;-62
2022/01/14 02:03:17;;;;;;;7.15;2.92;;;;;;;-2.00;68.13;101738.55;1828169;78;21062;-62
2022/01/14 02:05:46;;;;;;;5.87;2.62;;;;;;;-1.97;68.31;101743.81;1866874;77;21594;-62
2022/01/14 02:08:15;;;;;;;9.73;2.72;;;;;;;-1.93;68.00;101736.16;1828060;78;21504;-63
2022/01/14 02:10:44;;;;;;;4.60;2.05;;;;;;;-1.92;67.94;101737.89;1864420;77;21150;-62
2022/01/14 02:13:12;;;;;;;7.97;2.35;;;;;;;-1.90;67.95;101733.64;1829695;78;21113;-62
2022/01/14 02:16:01;;;;;;;12.40;2.15;;;;;;;-1.83;68.08;101727.82;1860525;77;21119;-62
2022/01/14 02:23:41;;;;;;;4.80;2.12;;;;;;;-1.86;67.95;101725.14;1828247;78;21076;-62
2022/01/14 02:26:08;;;;;;;2.15;0.90;;;;;;;-1.81;67.98;101726.16;1829479;78;21167;-61
2022/01/14 02:28:36;;;;;;;6.72;1.77;;;;;;;-1.84;67.96;101710.17;1860585;77;21063;-65
2022/01/14 02:31:05;;;;;;;3.62;1.32;;;;;;;-1.80;67.98;101716.30;1860539;77;21439;-62
2022/01/14 02:33:34;;;;;;;5.15;3.00;;;;;;;-1.77;68.02;101700.87;1823802;78;21545;-61
2022/01/14 02:36:03;;;;;;;5.87;2.02;;;;;;;-1.75;67.83;101704.39;1851276;77;21102;-61
2022/01/14 02:38:32;;;;;;;6.58;2.30;;;;;;;-1.73;68.01;101700.14;1851419;77;21489;-61
2022/01/14 02:41:01;;;;;;;4.47;2.27;;;;;;;-1.71;67.98;101698.47;1851291;77;21493;-62
2022/01/14 02:43:30;;;;;;;4.10;1.80;;;;;;;-1.64;67.77;101687.87;1848870;77;21150;-63
2022/01/14 02:45:58;;;;;;;5.00;1.90;;;;;;;-1.64;67.77;101687.87;1851348;77;21207;-61
2022/01/14 02:48:34;;;;;;;5.67;2.47;;;;;;;-1.64;67.79;101678.44;1851331;77;21047;-62
2022/01/14 02:51:07;;;;;;;4.83;2.50;;;;;;;-1.72;67.81;101660.98;1850365;77;21473;-61
2022/01/14 02:56:18;;;;;;;3.98;1.20;;;;;;;-1.92;68.09;101639.80;1851241;77;21051;-63
2022/01/14 02:58:48;;;;;;;7.33;2.08;;;;;;;-2.08;68.84;101622.63;1851434;77;21160;-63
2022/01/14 03:01:25;;;;;;;2.00;0.98;;;;;;;-2.08;68.84;101622.63;1826813;77;21032;-63
2022/01/14 03:03:58;;;;;;;4.40;1.98;;;;;;;-2.07;69.41;101624.36;1788335;79;21047;-61
2022/01/14 03:06:28;;;;;;;4.55;2.30;;;;;;;-2.06;69.43;101632.57;1820662;79;21498;-62
2022/01/14 03:08:58;;;;;;;8.65;2.25;;;;;;;-2.01;69.40;101637.45;1789617;80;21513;-60
2022/01/14 03:11:33;;;;;;;6.20;2.35;;;;;;;-1.93;69.27;101634.20;1822428;77;21069;-60
2022/01/14 03:14:04;;;;;;;3.10;1.45;;;;;;;-1.86;69.19;101633.50;1789643;80;21039;-60
2022/01/14 03:16:39;;;;;;;6.12;3.15;;;;;;;-1.83;68.90;101625.84;1820763;79;21155;-61
2022/01/14 03:19:08;;;;;;;7.22;3.15;;;;;;;-1.73;68.92;101633.01;1788846;80;21051;-61
2022/01/14 03:21:40;;;;;;;8.08;2.52;;;;;;;-1.70;68.93;101601.22;1814273;77;21050;-60
2022/01/14 03:24:23;;;;;;;5.47;2.62;;;;;;;-1.67;69.01;101606.47;1849628;77;21063;-61
2022/01/14 03:26:52;;;;;;;7.05;3.15;;;;;;;-1.59;68.97;101611.39;1851501;77;21144;-62
2022/01/14 03:29:21;;;;;;;6.15;3.27;;;;;;;-1.53;68.94;101602.52;1803723;79;21548;-63
2022/01/14 03:31:50;;;;;;;4.65;2.17;;;;;;;-1.48;69.05;101592.28;1840123;77;21036;-63
2022/01/14 03:34:19;;;;;;;4.90;2.33;;;;;;;-1.44;69.18;101592.80;1820961;78;21141;-59
2022/01/14 03:36:48;;;;;;;4.03;2.40;;;;;;;-1.43;69.29;101588.97;1821520;79;21110;-60
2022/01/14 03:39:19;;;;;;;4.87;2.10;;;;;;;-1.36;69.20;101593.88;1821539;79;21031;-60
2022/01/14 03:41:49;;;;;;;5.37;1.72;;;;;;;-1.29;69.04;101593.58;1823437;77;21212;-60
2022/01/14 03:44:18;;;;;;;7.37;3.02;;;;;;;-1.24;69.05;101588.97;1821375;79;21209;-63
2022/01/14 03:46:47;;;;;;;9.05;2.62;;;;;;;-1.24;69.17;101571.31;1812815;79;21555;-63
2022/01/14 03:49:16;;;;;;;4.80;2.55;;;;;;;-1.18;69.23;101580.09;1821391;79;21506;-63
2022/01/14 03:51:45;;;;;;;6.87;2.75;;;;;;;-1.11;69.13;101575.91;1813002;79;21485;-63
2022/01/14 03:54:13;;;;;;;5.00;2.87;;;;;;;-1.06;69.07;101581.20;1823400;77;21160;-63
2022/01/14 03:56:42;;;;;;;7.97;3.00;;;;;;;-1.03;68.99;101583.86;1852572;77;21109;-62
2022/01/14 03:59:11;;;;;;;8.10;2.90;;;;;;;-1.00;68.98;101590.37;1821454;79;21563;-63
2022/01/14 04:01:40;;;;;;;7.87;2.85;;;;;;;-0.98;68.95;101585.70;1852574;77;21517;-63
2022/01/14 04:04:09;;;;;;;7.00;3.52;;;;;;;-0.95;68.96;101581.01;1821445;79;21062;-64
2022/01/14 04:06:37;;;;;;;8.15;3.72;;;;;;;-0.92;69.00;101581.08;1847396;77;21264;-64
2022/01/14 04:09:07;;;;;;;7.53;3.20;;;;;;;-0.90;69.02;101585.86;1821418;79;21151;-64
2022/01/14 04:11:36;;;;;;;6.70;3.42;;;;;;;-0.90;68.96;101594.91;1821445;79;21516;-61
2022/01/14 04:15:36;;;;;;;10.88;3.80;;;;;;;-0.88;68.94;101590.64;1833291;77;21576;-62
2022/01/14 04:16:37;;;;;;;6.37;3.00;;;;;;;-0.88;69.02;101588.48;1848938;77;21115;-61
2022/01/14 04:19:06;;;;;;;10.10;3.60;;;;;;;-0.95;69.29;101583.59;1850251;77;21465;-61
2022/01/14 04:21:35;;;;;;;5.40;2.58;;;;;;;-0.95;69.45;101587.91;1851838;77;21136;-61
2022/01/14 04:24:04;;;;;;;8.05;3.70;;;;;;;-0.95;69.54;101589.19;1851958;77;21058;-61
2022/01/14 04:26:33;;;;;;;14.58;4.45;;;;;;;-0.95;69.72;101580.14;1852021;77;21078;-60
2022/01/14 04:29:02;;;;;;;11.30;3.87;;;;;;;-0.94;69.74;101572.43;1851989;77;21066;-60
2022/01/14 04:31:31;;;;;;;6.62;3.83;;;;;;;-0.93;69.87;101566.83;1849890;77;21116;-61
2022/01/14 04:34:00;;;;;;;7.90;3.67;;;;;;;-0.91;69.83;101567.30;1851901;77;21548;-62
2022/01/14 04:36:28;;;;;;;5.28;2.30;;;;;;;-0.92;69.92;101560.41;1851478;77;21201;-62
2022/01/14 04:39:00;;;;;;;6.67;4.03;;;;;;;-0.94;70.11;101558.61;1851433;77;21063;-62
2022/01/14 04:41:29;;;;;;;9.65;3.35;;;;;;;-0.93;70.30;101560.36;1850266;77;21027;-63
2022/01/14 04:43:57;;;;;;;11.20;4.10;;;;;;;-0.91;70.29;101559.55;1851578;77;21039;-61
2022/01/14 04:49:11;;;;;;;7.45;3.08;;;;;;;-0.82;70.33;101555.86;1811621;79;21168;-62
2022/01/14 04:51:41;;;;;;;11.10;4.28;;;;;;;-0.78;70.45;101547.74;1851367;77;21081;-62
2022/01/14 04:54:10;;;;;;;6.20;2.98;;;;;;;-0.79;71.01;101535.24;1848990;77;21481;-62
2022/01/14 04:56:39;;;;;;;6.40;3.27;;;;;;;-0.71;71.23;101541.00;1851357;77;21051;-62
2022/01/14 04:59:09;;;;;;;10.45;4.28;;;;;;;-0.65;71.20;101535.93;1851256;77;21078;-62
2022/01/14 05:01:39;;;;;;;11.63;3.72;;;;;;;-0.58;71.06;101537.80;1851487;77;21479;-62
2022/01/14 05:04:08;;;;;;;9.88;3.35;;;;;;;-0.51;70.95;101534.92;1847198;77;21034;-62
2022/01/14 05:06:38;;;;;;;9.03;3.70;;;;;;;-0.42;70.88;101529.92;1851347;77;21121;-61
2022/01/14 05:09:17;;;;;;;7.62;3.75;;;;;;;-0.37;70.80;101526.97;1851482;77;21132;-62
2022/01/14 05:11:40;;;;;;;6.10;3.10;;;;;;;-0.30;70.80;101526.67;1849113;77;21055;-62
2022/01/14 05:16:56;;;;;;;5.87;2.75;;;;;;;-0.20;71.17;101521.70;1860799;77;21131;-62
2022/01/14 05:19:24;;;;;;;12.53;3.65;;;;;;;-0.13;71.15;101520.09;1860799;77;21052;-62
2022/01/14 05:21:53;;;;;;;11.95;4.47;;;;;;;-0.08;71.65;101517.58;1885844;76;21104;-63
2022/01/14 05:24:27;;;;;;;14.10;4.90;;;;;;;-0.05;71.53;101518.50;1892412;76;21116;-63
2022/01/14 05:26:53;;;;;;;13.15;5.03;;;;;;;-0.01;71.48;101507.77;1891465;76;21045;-62
2022/01/14 05:29:21;;;;;;;10.85;4.05;;;;;;;0.03;71.83;101499.20;1892454;76;21484;-63
2022/01/14 05:32:01;;;;;;;11.93;4.22;;;;;;;0.09;71.73;101493.25;1888649;76;21472;-63
2022/01/14 05:34:23;;;;;;;12.75;2.77;;;;;;;0.15;71.66;101477.83;1894495;75;21602;-63
2022/01/14 05:36:51;;;;;;;10.75;4.50;;;;;;;0.21;71.69;101470.14;1892413;76;21099;-63
2022/01/14 05:39:20;;;;;;;8.45;3.10;;;;;;;0.28;71.73;101475.01;1892602;75;21500;-62
2022/01/14 05:41:49;;;;;;;11.53;3.65;;;;;;;0.36;71.68;101470.36;1892685;76;21116;-63
2022/01/14 05:44:18;;;;;;;9.70;4.37;;;;;;;0.43;71.72;101470.03;1892427;76;21062;-63
2022/01/14 05:46:46;;;;;;;5.72;2.87;;;;;;;0.51;71.80;101465.82;1853817;76;21432;-65
2022/01/14 05:49:15;;;;;;;15.68;5.25;;;;;;;0.56;71.90;101464.17;1806481;79;21066;-63
2022/01/14 05:51:44;;;;;;;12.28;4.97;;;;;;;0.62;71.81;101456.91;1881052;76;21057;-62
2022/01/14 05:54:14;;;;;;;11.90;5.12;;;;;;;0.68;71.69;101450.52;1923003;74;21457;-62
2022/01/14 05:56:43;;;;;;;16.60;5.75;;;;;;;0.73;71.56;101446.24;1920212;75;21119;-62
2022/01/14 05:59:12;;;;;;;13.08;5.17;;;;;;;0.78;71.66;101446.75;1920291;75;21062;-61
2022/01/14 06:01:41;;;;;;;11.00;4.75;;;;;;;0.85;71.60;101452.42;1920064;75;21135;-62
2022/01/14 06:04:10;;;;;;;10.88;4.17;;;;;;;0.90;71.57;101449.47;1916719;75;21611;-62
2022/01/14 06:06:39;;;;;;;9.23;4.10;;;;;;;0.95;71.54;101444.78;1920177;75;21500;-59
2022/01/14 06:09:08;;;;;;;7.78;4.03;;;;;;;1.01;71.52;101437.50;1920263;75;21051;-59
2022/01/14 06:11:37;;;;;;;5.35;1.98;;;;;;;1.06;71.73;101428.05;1920155;75;21159;-61
2022/01/14 06:14:05;;;;;;;9.25;4.20;;;;;;;1.12;72.13;101422.92;1916709;75;21049;-62
2022/01/14 06:16:34;;;;;;;7.90;3.80;;;;;;;1.17;72.20;101422.98;1918340;74;21195;-62
2022/01/14 06:19:03;;;;;;;3.33;1.25;;;;;;;1.21;72.26;101414.81;1917699;75;21116;-62
2022/01/14 06:21:32;;;;;;;7.20;2.83;;;;;;;1.26;72.44;101414.44;1915117;75;21096;-59
2022/01/14 06:24:00;;;;;;;7.55;3.58;;;;;;;1.30;72.35;101406.69;1917625;74;21023;-62
2022/01/14 06:26:29;;;;;;;2.98;1.40;;;;;;;1.35;72.72;101395.07;1915390;75;21038;-62
2022/01/14 06:28:58;;;;;;;7.78;2.20;;;;;;;1.38;72.77;101387.29;1917505;75;21059;-61
2022/01/14 06:31:27;;;;;;;11.45;5.80;;;;;;;1.43;73.04;101388.20;1915266;74;21472;-61
2022/01/14 06:33:56;;;;;;;8.00;3.30;;;;;;;1.47;72.95;101383.48;1917603;75;21066;-61
2022/01/14 06:36:24;;;;;;;6.47;2.52;;;;;;;1.49;73.13;101386.95;1917581;75;21034;-61
2022/01/14 06:38:53;;;;;;;4.67;2.67;;;;;;;1.51;73.41;101381.38;1917609;75;21153;-61
2022/01/14 06:41:22;;;;;;;4.15;2.05;;;;;;;1.53;73.66;101386.15;1915132;75;21142;-61
2022/01/14 06:43:51;;;;;;;7.78;2.17;;;;;;;1.56;73.92;101388.33;1917631;75;21581;-61
2022/01/14 06:46:19;;;;;;;9.53;3.70;;;;;;;1.59;73.78;101382.73;1917665;75;21132;-62
2022/01/14 06:48:48;;;;;;;6.53;3.00;;;;;;;1.68;73.55;101379.35;1917582;75;21110;-63
2022/01/14 06:51:17;;;;;;;6.03;2.60;;;;;;;1.74;73.44;101380.25;1917593;75;21095;-62
2022/01/14 06:53:46;;;;;;;6.30;2.83;;;;;;;1.79;73.39;101375.10;1896858;75;21425;-63
2022/01/14 06:56:16;;;;;;;7.37;3.90;;;;;;;1.84;73.47;101373.38;1890584;76;21480;-63
2022/01/14 06:58:45;;;;;;;6.58;2.42;;;;;;;1.91;73.33;101367.38;1923427;74;21049;-62
2022/01/14 07:01:14;;;;;;;15.13;5.22;;;;;;;1.94;73.43;101360.05;1923372;74;21038;-63
2022/01/14 07:03:44;;;;;;;11.30;3.35;;;;;;;2.00;73.30;101356.63;1923453;74;21046;-62
2022/01/14 07:06:12;;;;;;;12.10;3.70;;;;;;;2.05;73.40;101361.42;1923307;74;21030;-63
2022/01/14 07:08:41;;;;;;;15.63;4.20;;;;;;;2.08;73.33;101353.19;1928821;74;21073;-62
2022/01/14 07:11:11;;;;;;;16.02;4.53;;;;;;;2.11;73.35;101354.95;1932661;74;21088;-62
2022/01/14 07:13:40;;;;;;;10.88;4.50;;;;;;;2.12;73.36;101349.77;1932792;74;21497;-62
2022/01/14 07:16:08;;;;;;;10.55;4.33;;;;;;;2.15;73.40;101343.71;1932518;74;21313;-62
2022/01/14 07:18:37;;;;;;;18.17;5.40;;;;;;;2.16;73.44;101337.67;1929719;74;21072;-62
2022/01/14 07:21:06;;;;;;;23.40;11.85;;;;;;;2.21;73.24;101339.84;1932231;74;21123;-63
2022/01/14 07:23:34;;;;;;;39.78;20.77;;;;;;;2.26;73.20;101325.14;1932370;74;21038;-63
2022/01/14 07:26:03;;;;;;;39.83;16.62;;;;;;;2.31;73.16;101314.34;1901955;74;21069;-63
2022/01/14 07:28:32;;;;;;;36.95;16.45;;;;;;;2.42;73.09;101308.33;1898570;75;21041;-64
2022/01/14 07:31:00;;;;;;;36.38;15.53;;;;;;;2.53;73.05;101297.53;1898843;75;21060;-63
2022/01/14 07:33:29;;;;;;;37.42;14.47;;;;;;;2.67;72.97;101289.34;1898557;75;21013;-63
2022/01/14 07:35:58;;;;;;;34.18;12.40;;;;;;;2.82;72.90;101288.92;1922445;74;21025;-64
2022/01/14 07:38:27;;;;;;;29.45;10.48;;;;;;;2.94;72.72;101278.98;1932445;74;21041;-65
2022/01/14 07:40:55;;;;;;;23.55;10.13;;;;;;;3.06;72.62;101263.36;1932355;74;21065;-65
2022/01/14 07:43:24;;;;;;;18.23;8.75;;;;;;;3.22;72.60;101257.73;1932460;74;21115;-63
2022/01/14 07:46:13;;;;;;;21.85;10.50;;;;;;;3.32;72.51;101255.57;1932315;74;21033;-65
2022/01/14 07:48:42;;;;;;;29.35;17.07;;;;;;;3.42;72.34;101252.06;1893521;76;21090;-63
2022/01/14 07:51:11;;;;;;;29.55;12.98;;;;;;;3.50;72.10;101242.08;1881542;76;21461;-63
2022/01/14 07:53:40;;;;;;;14.38;7.20;;;;;;;3.51;72.04;101241.23;1849039;77;21156;-63
2022/01/14 07:56:12;;;;;;;12.25;5.72;;;;;;;3.45;72.20;101235.16;1849022;77;21479;-63
2022/01/14 07:58:41;;;;;;;10.90;5.92;;;;;;;3.43;72.38;101233.41;1882396;76;21219;-63
2022/01/14 08:01:10;;;;;;;13.43;6.70;;;;;;;3.45;72.45;101240.36;1870608;76;21100;-59
2022/01/14 08:03:39;;;;;;;12.60;6.70;;;;;;;3.49;72.48;101241.22;1850771;77;21046;-60
2022/01/14 08:06:10;;;;;;;14.58;7.87;;;;;;;3.53;72.45;101239.04;1881939;76;20996;-59
2022/01/14 08:08:41;;;;;;;12.80;5.12;;;;;;;3.58;72.53;101236.00;1875079;76;21030;-59
2022/01/14 08:11:10;;;;;;;9.70;4.70;;;;;;;3.65;72.53;101226.41;1855114;77;21005;-59
2022/01/14 08:13:39;;;;;;;9.35;3.98;;;;;;;3.71;72.43;101216.41;1853477;77;21539;-59
2022/01/14 08:16:07;;;;;;;12.55;5.65;;;;;;;3.74;72.33;101210.76;1853464;77;21128;-59
2022/01/14 08:18:36;;;;;;;4.15;3.20;;;;;;;3.78;72.28;101202.09;1853571;77;21042;-59
2022/01/14 08:21:05;;;;;;;7.22;3.58;;;;;;;3.81;72.19;101198.15;1851576;77;21565;-61
2022/01/14 08:23:34;;;;;;;6.17;3.12;;;;;;;3.83;72.17;101195.09;1891353;76;21557;-61
2022/01/14 08:26:03;;;;;;;6.22;2.92;;;;;;;3.84;72.16;101189.03;1888554;76;21638;-62
2022/01/14 08:28:32;;;;;;;7.00;3.85;;;;;;;3.91;72.16;101177.27;1848439;77;21052;-61
2022/01/14 08:31:00;;;;;;;5.25;3.02;;;;;;;3.98;72.18;101180.27;1855930;77;21065;-59
2022/01/14 08:33:30;;;;;;;6.95;2.30;;;;;;;4.08;72.12;101170.25;1897039;76;21490;-59
2022/01/14 08:35:59;;;;;;;5.00;2.40;;;;;;;4.18;72.10;101174.97;1896969;76;21471;-60
2022/01/14 08:38:28;;;;;;;4.55;1.95;;;;;;;4.27;72.02;101168.84;1897054;76;21013;-59
2022/01/14 08:40:56;;;;;;;3.62;1.35;;;;;;;4.37;71.91;101160.06;1885704;76;21546;-59
2022/01/14 08:43:25;;;;;;;1.32;0.80;;;;;;;4.40;71.81;101149.63;1861880;77;21058;-59
2022/01/14 08:45:57;;;;;;;2.92;1.37;;;;;;;4.42;71.75;101140.05;1861934;77;21512;-57
2022/01/14 08:48:25;;;;;;;2.00;1.37;;;;;;;4.42;71.80;101140.05;1855431;77;21075;-58
2022/01/14 08:50:53;;;;;;;2.80;0.90;;;;;;;4.46;71.79;101136.53;1852842;77;21703;-58
2022/01/14 08:53:22;;;;;;;1.02;0.95;;;;;;;4.50;71.78;101119.13;1852894;77;21627;-58
2022/01/14 08:55:51;;;;;;;1.95;1.20;;;;;;;4.51;71.74;101118.27;1860673;75;21607;-58
2022/01/14 08:58:20;;;;;;;5.28;1.07;;;;;;;4.56;71.68;101106.91;1884662;76;21038;-57
2022/01/14 09:00:49;;;;;;;3.22;1.02;;;;;;;4.58;71.73;101100.39;1884671;76;21136;-57
2022/01/14 09:03:18;;;;;;;2.75;1.00;;;;;;;4.61;71.77;101106.86;1884549;76;21116;-58
2022/01/14 09:05:47;;;;;;;2.05;1.10;;;;;;;4.67;71.73;101103.33;1884729;76;21116;-58
2022/01/14 09:08:15;;;;;;;2.45;1.25;;;;;;;4.72;71.67;101106.77;1884631;76;21105;-57
2022/01/14 09:10:44;;;;;;;2.47;1.25;;;;;;;4.79;71.60;101105.84;1884637;76;21123;-58
2022/01/14 09:13:13;;;;;;;2.02;1.12;;;;;;;4.87;71.53;101098.81;1884645;75;21580;-57
2022/01/14 09:15:42;;;;;;;3.85;1.32;;;;;;;4.96;71.46;101096.53;1884565;76;21540;-57
2022/01/14 09:18:11;;;;;;;2.50;1.22;;;;;;;5.00;71.41;101086.06;1884856;76;21888;-57
2022/01/14 09:20:40;;;;;;;2.27;1.05;;;;;;;5.02;71.43;101080.83;1884872;76;21530;-57
2022/01/14 09:23:15;;;;;;;1.90;1.00;;;;;;;4.99;71.39;101073.88;1884646;76;21550;-57
2022/01/14 09:25:39;;;;;;;2.87;1.30;;;;;;;4.95;71.48;101068.28;1883925;76;21496;-58
2022/01/14 09:28:08;;;;;;;3.40;1.30;;;;;;;4.93;71.49;101064.83;1884508;75;21421;-58
2022/01/14 09:30:36;;;;;;;3.08;1.60;;;;;;;4.91;71.49;101064.43;1884613;76;21484;-58
2022/01/14 09:33:06;;;;;;;2.60;1.55;;;;;;;4.88;71.60;101058.78;1884796;76;21022;-57
2022/01/14 09:35:35;;;;;;;2.15;1.50;;;;;;;4.84;71.62;101051.88;1884668;76;21022;-58
2022/01/14 09:38:04;;;;;;;4.92;1.98;;;;;;;4.80;71.67;101057.56;1884656;76;21543;-57
2022/01/14 09:40:33;;;;;;;3.72;1.60;;;;;;;4.74;71.71;101049.81;1884770;76;21038;-58
2022/01/14 09:43:02;;;;;;;2.90;1.57;;;;;;;4.69;71.77;101030.72;1884767;76;21109;-58
2022/01/14 09:45:33;;;;;;;4.70;1.98;;;;;;;4.64;71.90;101032.05;1884673;76;21129;-57
2022/01/14 09:48:02;;;;;;;5.20;1.80;;;;;;;4.59;72.05;101027.77;1884690;76;21171;-58
2022/01/14 09:50:30;;;;;;;5.25;2.12;;;;;;;4.57;72.15;101019.95;1885242;76;21554;-57
2022/01/14 09:52:59;;;;;;;18.48;6.72;;;;;;;4.55;72.19;101023.02;1885227;76;21480;-57
2022/01/14 09:55:28;;;;;;;4.72;1.98;;;;;;;4.54;72.24;101023.91;1885338;76;21049;-58
2022/01/14 09:57:58;;;;;;;5.22;2.20;;;;;;;4.53;72.30;101018.70;1885232;76;21100;-57
2022/01/14 10:00:26;;;;;;;6.15;2.95;;;;;;;4.52;72.35;101021.77;1885382;75;21087;-58
2022/01/14 10:02:55;;;;;;;4.30;2.10;;;;;;;4.48;72.44;101013.52;1885242;76;21045;-57
2022/01/14 10:05:39;;;;;;;4.47;2.42;;;;;;;4.47;72.48;101012.26;1885229;76;21491;-57
2022/01/14 10:08:09;;;;;;;;;;;;;;;4.47;72.55;101005.30;1887967;76;21202;-58
2022/01/14 10:10:39;;;;;;;5.87;2.92;;;;;;;4.47;72.57;100993.55;1852606;76;20157;-58
2022/01/14 10:13:13;;;;;;;6.53;2.20;;;;;;;4.49;72.47;100993.10;1853618;76;21056;-57
2022/01/14 10:15:48;;;;;;;9.45;3.08;;;;;;;4.53;72.45;100992.18;1844153;76;21550;-58
2022/01/14 10:18:19;;;;;;;7.78;2.55;;;;;;;4.54;72.48;100991.31;1852977;77;21118;-58
2022/01/14 10:20:48;;;;;;;5.62;2.58;;;;;;;4.54;72.58;100991.77;1856401;77;21151;-58
2022/01/14 10:23:17;;;;;;;4.25;1.80;;;;;;;4.55;72.59;100990.42;1885249;76;21566;-57
2022/01/14 10:25:57;;;;;;;3.25;1.65;;;;;;;4.57;72.61;100980.83;1885491;76;21529;-57
2022/01/14 10:28:26;;;;;;;4.15;2.35;;;;;;;4.56;72.70;100981.73;1885345;76;21065;-58
2022/01/14 10:30:55;;;;;;;1.55;1.10;;;;;;;4.57;72.70;100976.92;1885132;76;21064;-58
2022/01/14 10:33:26;;;;;;;2.62;1.30;;;;;;;4.62;72.61;100971.22;1885331;76;21491;-58
2022/01/14 10:35:56;;;;;;;2.50;1.32;;;;;;;4.63;72.53;100965.14;1846530;76;21053;-57
2022/01/14 10:38:28;;;;;;;2.77;1.10;;;;;;;4.69;72.53;100969.42;1885200;76;21495;-57
2022/01/14 10:40:59;;;;;;;2.35;1.55;;;;;;;4.81;72.41;100963.19;1885218;76;21165;-58
2022/01/14 10:43:36;;;;;;;2.42;1.25;;;;;;;4.89;72.31;100960.48;1885125;76;21040;-58
2022/01/14 10:46:09;;;;;;;2.15;1.40;;;;;;;4.97;72.17;100951.69;1885284;75;21124;-58
2022/01/14 10:48:41;;;;;;;2.12;1.25;;;;;;;4.99;72.11;100939.48;1885337;76;21195;-58
2022/01/14 10:51:12;;;;;;;1.90;1.10;;;;;;;4.98;72.08;100936.88;1885322;76;21033;-58
2022/01/14 10:53:43;;;;;;;2.17;1.25;;;;;;;5.02;72.07;100932.92;1885258;76;21013;-59
2022/01/14 10:56:15;;;;;;;2.15;1.40;;;;;;;5.03;72.03;100937.70;1885224;76;21154;-58
2022/01/14 10:58:46;;;;;;;1.75;1.00;;;;;;;5.02;72.02;100928.16;1885236;76;21037;-58
2022/01/14 11:01:20;;;;;;;2.67;1.40;;;;;;;4.99;72.00;100926.43;1885195;75;21081;-57
2022/01/14 11:04:03;;;;;;;3.47;1.50;;;;;;;5.01;71.95;100919.44;1885372;76;21069;-57
2022/01/14 11:06:32;;;;;;;;;;;;;;;4.99;71.94;100915.14;1887994;75;21139;-58
2022/01/14 11:09:03;;;;;;;3.22;1.32;;;;;;;4.98;71.90;100907.77;1885248;76;20151;-58
2022/01/14 11:11:34;;;;;;;4.62;2.10;;;;;;;4.95;71.87;100896.05;1850138;77;21049;-57
2022/01/14 11:14:05;;;;;;;4.20;2.10;;;;;;;4.97;71.84;100904.71;1856396;77;21115;-57
2022/01/14 11:16:34;;;;;;;8.63;3.60;;;;;;;4.95;71.83;100897.35;1885320;76;21041;-58
2022/01/14 11:19:06;;;;;;;7.80;3.10;;;;;;;4.92;71.79;100889.55;1885156;76;21198;-58
2022/01/14 11:24:37;;;;;;;6.65;3.17;;;;;;;4.82;71.77;100880.99;1885169;75;21037;-57
2022/01/14 11:27:09;;;;;;;6.85;4.67;;;;;;;4.73;71.70;100875.04;1885308;76;21095;-59
2022/01/14 11:29:40;;;;;;;7.08;4.20;;;;;;;4.61;71.80;100874.31;1885152;76;21065;-58
2022/01/14 11:32:10;;;;;;;5.40;2.90;;;;;;;4.61;71.91;100873.02;1885183;74;21068;-58
2022/01/14 11:34:44;;;;;;;5.85;3.72;;;;;;;4.62;71.96;100862.98;1885141;76;21487;-58
2022/01/14 11:37:18;;;;;;;4.05;2.20;;;;;;;4.55;72.07;100851.34;1885444;76;21013;-58
2022/01/14 11:39:59;;;;;;;10.20;2.83;;;;;;;4.51;72.15;100849.67;1882531;75;21170;-58
2022/01/14 11:42:43;;;;;;;8.03;5.50;;;;;;;4.45;72.20;100840.17;1885208;76;21056;-56
2022/01/14 11:45:22;;;;;;;11.33;5.85;;;;;;;4.45;72.23;100840.17;1885070;75;21573;-56
2022/01/14 11:47:59;;;;;;;9.95;5.65;;;;;;;4.48;72.25;100828.83;1889132;74;21073;-56
2022/01/14 11:50:32;;;;;;;10.72;5.80;;;;;;;4.47;72.32;100827.98;1882241;76;21681;-56
2022/01/14 11:53:02;;;;;;;12.35;6.60;;;;;;;4.43;72.47;100823.69;1882134;76;21062;-56
2022/01/14 11:55:35;;;;;;;14.70;7.70;;;;;;;4.44;72.48;100821.48;1882227;76;21026;-56
2022/01/14 11:58:06;;;;;;;20.05;9.15;;;;;;;4.47;72.44;100819.30;1882241;76;21022;-56
2022/01/14 12:00:39;;;;;;;23.45;8.95;;;;;;;4.46;72.50;100811.90;1882085;76;21113;-56
2022/01/14 12:03:26;;;;;;;19.17;8.08;;;;;;;4.45;72.56;100806.28;1882093;76;21081;-58
2022/01/14 12:05:56;;;;;;;14.23;6.33;;;;;;;4.37;72.72;100797.67;1881745;76;21070;-58
2022/01/14 12:08:28;;;;;;;22.87;9.95;;;;;;;4.31;72.87;100790.80;1882072;76;21050;-56
2022/01/14 12:11:08;;;;;;;24.82;9.63;;;;;;;4.28;73.05;100788.66;1881971;76;21046;-56